createdAt,value
2023-03-03T00:01:04.402Z,11.20
2023-03-03T00:03:32.802Z,10.53
2023-03-03T00:06:01.252Z,10.87
2023-03-03T00:08:29.635Z,10.60
2023-03-03T00:11:00.756Z,10.37
2023-03-03T00:13:32.868Z,10.20
2023-03-03T00:16:15.061Z,10.80
2023-03-03T00:18:45.722Z,9.10
2023-03-03T00:21:31.871Z,10.43
2023-03-03T00:24:15.797Z,10.37
2023-03-03T00:26:48.009Z,10.17
2023-03-03T00:29:35.717Z,9.50
2023-03-03T00:32:24.822Z,9.77
2023-03-03T00:34:54.473Z,10.03
2023-03-03T00:37:31.795Z,10.67
2023-03-03T00:40:21.319Z,10.07
2023-03-03T00:42:53.637Z,11.20
2023-03-03T00:45:29.575Z,10.23
2023-03-03T00:47:58.496Z,10.83
2023-03-03T00:50:36.287Z,10.73
2023-03-03T00:53:07.332Z,10.93
2023-03-03T00:55:36.391Z,11.37
2023-03-03T00:58:05.933Z,11.67
2023-03-03T01:00:34.482Z,10.67
2023-03-03T01:03:05.169Z,12.33
2023-03-03T01:05:33.668Z,11.83
2023-03-03T01:08:01.633Z,11.97
2023-03-03T01:10:33.482Z,10.87
2023-03-03T01:13:01.359Z,11.47
2023-03-03T01:15:30.813Z,11.87
2023-03-03T01:17:58.916Z,11.23
2023-03-03T01:20:26.784Z,11.33
2023-03-03T01:22:54.670Z,12.60
2023-03-03T01:25:22.615Z,11.27
2023-03-03T01:27:52.938Z,11.97
2023-03-03T01:30:21.003Z,12.40
2023-03-03T01:32:52.267Z,11.97
2023-03-03T01:35:20.918Z,11.90
2023-03-03T01:37:48.930Z,12.17
2023-03-03T01:40:21.607Z,11.57
2023-03-03T01:42:49.775Z,11.87
2023-03-03T01:45:21.242Z,11.47
2023-03-03T01:47:55.860Z,10.93
2023-03-03T01:50:33.645Z,11.87
2023-03-03T01:53:05.766Z,12.17
2023-03-03T01:55:36.797Z,11.60
2023-03-03T01:58:08.711Z,11.27
2023-03-03T02:00:38.977Z,11.37
2023-03-03T02:03:08.409Z,10.93
2023-03-03T02:05:36.935Z,12.27
2023-03-03T02:08:05.695Z,12.53
2023-03-03T02:10:33.769Z,11.57
2023-03-03T02:13:01.716Z,11.67
2023-03-03T02:15:32.593Z,11.30
2023-03-03T02:18:04.039Z,12.40
2023-03-03T02:20:45.720Z,11.77
2023-03-03T02:23:19.362Z,12.37
2023-03-03T02:25:56.849Z,11.60
2023-03-03T02:28:31.720Z,11.23
2023-03-03T02:31:00.968Z,12.73
2023-03-03T02:33:31.406Z,12.57
2023-03-03T02:35:59.327Z,11.37
2023-03-03T02:38:30.581Z,12.43
2023-03-03T02:41:04.758Z,12.33
2023-03-03T02:43:39.760Z,11.63
2023-03-03T02:46:08.791Z,11.27
2023-03-03T02:48:36.628Z,11.83
2023-03-03T02:51:04.524Z,11.20
2023-03-03T02:53:32.480Z,11.90
2023-03-03T02:56:00.305Z,11.53
2023-03-03T02:58:28.320Z,10.67
2023-03-03T03:00:57.860Z,10.90
2023-03-03T03:03:25.882Z,11.40
2023-03-03T03:05:53.738Z,11.30
2023-03-03T03:08:21.608Z,11.53
2023-03-03T03:10:49.471Z,11.73
2023-03-03T03:13:18.057Z,10.63
2023-03-03T03:15:47.386Z,11.60
2023-03-03T03:18:17.797Z,11.57
2023-03-03T03:20:48.382Z,10.23
2023-03-03T03:23:17.001Z,11.17
2023-03-03T03:25:46.520Z,11.43
2023-03-03T03:28:15.441Z,10.83
2023-03-03T03:30:45.682Z,10.83
2023-03-03T03:33:14.215Z,10.70
2023-03-03T03:35:45.788Z,11.33
2023-03-03T03:38:14.159Z,11.93
2023-03-03T03:40:42.748Z,10.30
2023-03-03T03:43:10.817Z,12.13
2023-03-03T03:45:38.648Z,10.90
2023-03-03T03:48:06.940Z,11.83
2023-03-03T03:50:34.815Z,12.23
2023-03-03T03:53:04.193Z,11.10
2023-03-03T03:55:32.682Z,12.20
2023-03-03T03:58:00.763Z,11.87
2023-03-03T04:00:28.865Z,13.00
2023-03-03T04:02:56.830Z,11.70
2023-03-03T04:05:25.074Z,11.67
2023-03-03T04:07:52.942Z,11.30
2023-03-03T04:10:22.165Z,9.50
2023-03-03T04:12:50.095Z,9.57
2023-03-03T04:15:18.101Z,10.70
2023-03-03T04:17:46.000Z,11.10
2023-03-03T04:20:16.866Z,10.67
2023-03-03T04:22:45.511Z,10.53
2023-03-03T04:25:16.103Z,10.83
2023-03-03T04:27:46.520Z,11.03
2023-03-03T04:30:16.841Z,11.00
2023-03-03T04:32:45.635Z,10.80
2023-03-03T04:35:13.725Z,10.50
2023-03-03T04:37:41.519Z,10.03
2023-03-03T04:40:10.849Z,10.17
2023-03-03T04:42:38.732Z,10.73
2023-03-03T04:45:09.193Z,10.80
2023-03-03T04:47:37.064Z,9.43
2023-03-03T04:50:05.373Z,10.07
2023-03-03T04:52:33.235Z,11.00
2023-03-03T04:55:01.076Z,11.47
2023-03-03T04:57:29.083Z,10.90
2023-03-03T04:59:57.093Z,11.50
2023-03-03T05:02:26.406Z,11.00
2023-03-03T05:04:54.354Z,12.63
2023-03-03T05:07:22.181Z,10.87
2023-03-03T05:09:49.997Z,11.53
2023-03-03T05:12:17.968Z,11.67
2023-03-03T05:14:48.471Z,11.50
2023-03-03T05:17:16.667Z,11.40
2023-03-03T05:19:46.032Z,12.20
2023-03-03T05:22:13.977Z,12.40
2023-03-03T05:24:42.931Z,10.77
2023-03-03T05:27:11.794Z,11.23
2023-03-03T05:29:39.809Z,11.10
2023-03-03T05:32:08.050Z,10.97
2023-03-03T05:34:35.917Z,9.57
2023-03-03T05:37:06.608Z,10.50
2023-03-03T05:39:35.379Z,9.77
2023-03-03T05:42:03.458Z,10.20
2023-03-03T05:44:31.735Z,9.60
2023-03-03T05:46:59.660Z,9.13
2023-03-03T05:49:27.772Z,10.07
2023-03-03T05:51:55.743Z,10.07
2023-03-03T05:54:25.016Z,9.27
2023-03-03T05:56:52.829Z,9.07
2023-03-03T05:59:20.667Z,9.17
2023-03-03T06:01:48.574Z,9.60
2023-03-03T06:04:16.643Z,10.00
2023-03-03T06:06:45.190Z,9.80
2023-03-03T06:09:12.985Z,11.03
2023-03-03T06:11:42.326Z,11.27
2023-03-03T06:14:10.284Z,10.87
2023-03-03T06:16:38.222Z,11.17
2023-03-03T06:19:06.663Z,10.97
2023-03-03T06:21:34.480Z,11.30
2023-03-03T06:24:02.352Z,11.30
2023-03-03T06:26:30.561Z,11.23
2023-03-03T06:28:59.788Z,10.83
2023-03-03T06:31:28.789Z,11.37
2023-03-03T06:33:56.785Z,11.33
2023-03-03T06:36:26.379Z,10.97
2023-03-03T06:38:54.198Z,12.10
2023-03-03T06:41:22.104Z,10.40
2023-03-03T06:43:49.953Z,10.40
2023-03-03T06:46:19.698Z,9.87
2023-03-03T06:48:47.697Z,10.93
2023-03-03T06:51:24.480Z,9.80
2023-03-03T06:53:54.881Z,10.03
2023-03-03T06:56:23.218Z,10.00
2023-03-03T06:58:55.558Z,10.40
2023-03-03T07:01:24.990Z,10.70
2023-03-03T07:03:52.968Z,9.50
2023-03-03T07:06:24.377Z,9.90
2023-03-03T07:08:53.231Z,9.33
2023-03-03T07:11:23.783Z,9.60
2023-03-03T07:13:53.051Z,8.73
2023-03-03T07:16:25.654Z,8.20
2023-03-03T07:18:56.811Z,8.60
2023-03-03T07:21:31.736Z,8.33
2023-03-03T07:24:00.910Z,7.63
2023-03-03T07:26:32.840Z,7.37
2023-03-03T07:29:15.511Z,7.53
2023-03-03T07:31:46.973Z,7.90
2023-03-03T07:34:22.478Z,7.20
2023-03-03T07:36:51.468Z,8.07
2023-03-03T07:39:38.343Z,7.27
2023-03-03T07:42:27.687Z,7.63
2023-03-03T07:44:57.391Z,7.53
2023-03-03T07:47:27.513Z,7.97
2023-03-03T07:49:58.736Z,7.90
2023-03-03T07:52:29.826Z,7.60
2023-03-03T07:55:00.143Z,7.03
2023-03-03T07:57:31.457Z,6.63
2023-03-03T08:00:03.052Z,6.77
2023-03-03T08:02:40.094Z,6.10
2023-03-03T08:05:32.218Z,6.30
2023-03-03T08:08:16.131Z,5.87
2023-03-03T08:10:50.474Z,7.63
2023-03-03T08:13:21.105Z,6.83
2023-03-03T08:15:51.769Z,6.90
2023-03-03T08:18:25.117Z,5.60
2023-03-03T08:20:59.754Z,6.07
2023-03-03T08:23:27.691Z,5.70
2023-03-03T08:25:55.987Z,5.23
2023-03-03T08:28:24.249Z,5.47
2023-03-03T08:31:02.736Z,6.87
2023-03-03T08:33:36.912Z,6.00
2023-03-03T08:36:09.172Z,5.27
2023-03-03T08:38:37.503Z,6.00
2023-03-03T08:41:06.258Z,6.87
2023-03-03T08:43:34.120Z,6.63
2023-03-03T08:46:05.302Z,6.10
2023-03-03T08:48:34.282Z,6.30
2023-03-03T08:51:02.408Z,6.77
2023-03-03T08:53:33.592Z,6.30
2023-03-03T08:56:01.413Z,6.77
2023-03-03T08:58:35.238Z,6.73
2023-03-03T09:01:05.018Z,6.67
2023-03-03T09:03:33.158Z,5.33
2023-03-03T09:06:01.003Z,6.43
2023-03-03T09:08:28.910Z,6.00
2023-03-03T09:10:58.049Z,5.27
2023-03-03T09:13:25.909Z,4.80
2023-03-03T09:15:53.918Z,5.33
2023-03-03T09:18:23.669Z,4.83
2023-03-03T09:20:52.793Z,5.17
2023-03-03T09:23:31.006Z,4.13
2023-03-03T09:26:13.320Z,4.17
2023-03-03T09:28:41.146Z,5.10
2023-03-03T09:31:25.166Z,3.77
2023-03-03T09:33:57.578Z,4.30
2023-03-03T09:36:27.939Z,3.87
2023-03-03T09:38:56.894Z,4.40
2023-03-03T09:41:52.705Z,3.87
2023-03-03T09:45:03.420Z,4.30
2023-03-03T09:47:48.126Z,3.83
2023-03-03T09:50:27.469Z,4.43
2023-03-03T09:53:10.532Z,4.50
2023-03-03T09:55:48.924Z,4.40
2023-03-03T09:58:37.053Z,4.27
2023-03-03T10:01:30.189Z,4.47
2023-03-03T10:04:12.245Z,5.20
2023-03-03T10:06:48.274Z,4.23
2023-03-03T10:09:41.687Z,4.47
2023-03-03T10:12:17.472Z,4.90
2023-03-03T10:15:04.368Z,4.67
2023-03-03T10:17:42.635Z,4.63
2023-03-03T10:20:24.838Z,4.47
2023-03-03T10:22:56.651Z,4.50
2023-03-03T10:25:34.966Z,5.33
2023-03-03T10:28:18.304Z,5.00
2023-03-03T10:31:05.603Z,4.60
2023-03-03T10:33:44.957Z,5.30
2023-03-03T10:36:30.401Z,4.97
2023-03-03T10:39:15.464Z,5.33
2023-03-03T10:42:00.500Z,4.80
2023-03-03T10:44:51.167Z,4.60
2023-03-03T10:47:38.843Z,4.50
2023-03-03T10:50:18.243Z,3.67
2023-03-03T10:52:49.836Z,5.03
2023-03-03T10:55:28.963Z,4.97
2023-03-03T10:58:08.983Z,4.67
2023-03-03T11:00:44.972Z,4.23
2023-03-03T11:03:51.611Z,3.77
2023-03-03T11:06:25.088Z,4.57
2023-03-03T11:08:57.612Z,3.57
2023-03-03T11:11:36.494Z,4.00
2023-03-03T11:14:13.476Z,4.07
2023-03-03T11:16:58.932Z,4.27
2023-03-03T11:19:47.527Z,3.47
2023-03-03T11:22:28.152Z,3.30
2023-03-03T11:25:03.746Z,4.00
2023-03-03T11:27:49.703Z,3.47
2023-03-03T11:30:34.402Z,3.40
2023-03-03T11:33:07.644Z,3.27
2023-03-03T11:35:45.830Z,3.63
2023-03-03T11:38:33.700Z,3.20
2023-03-03T11:41:08.533Z,3.20
2023-03-03T11:43:44.478Z,3.10
2023-03-03T11:46:17.478Z,3.80
2023-03-03T11:48:52.799Z,2.87
2023-03-03T11:51:33.086Z,3.00
2023-03-03T11:54:06.367Z,2.83
2023-03-03T11:56:40.070Z,2.57
2023-03-03T11:59:31.775Z,2.17
2023-03-03T12:02:04.718Z,2.60
2023-03-03T12:04:37.854Z,2.30
2023-03-03T12:07:20.604Z,2.30
2023-03-03T12:09:58.089Z,2.10
2023-03-03T12:12:30.703Z,1.23
2023-03-03T12:15:20.049Z,1.43
2023-03-03T12:18:20.056Z,1.30
2023-03-03T12:20:56.835Z,1.80
2023-03-03T12:23:57.768Z,1.40
2023-03-03T12:26:35.821Z,1.63
2023-03-03T12:29:08.481Z,2.03
2023-03-03T12:31:47.609Z,1.40
2023-03-03T12:34:24.624Z,1.17
2023-03-03T12:37:11.120Z,1.17
2023-03-03T12:39:51.230Z,1.70
2023-03-03T12:42:26.400Z,1.47
2023-03-03T12:45:04.548Z,1.00
2023-03-03T12:47:39.183Z,2.30
2023-03-03T12:50:23.091Z,1.50
2023-03-03T12:53:01.299Z,1.60
2023-03-03T12:55:41.529Z,1.80
2023-03-03T12:58:15.721Z,1.20
2023-03-03T13:00:51.907Z,1.20
2023-03-03T13:03:32.089Z,0.93
2023-03-03T13:06:12.189Z,1.30
2023-03-03T13:08:53.665Z,1.20
2023-03-03T13:11:42.984Z,0.93
2023-03-03T13:14:24.793Z,1.43
2023-03-03T13:17:03.403Z,1.17
2023-03-03T13:19:36.385Z,1.57
2023-03-03T13:22:09.755Z,1.63
2023-03-03T13:24:46.147Z,2.00
2023-03-03T13:27:20.153Z,2.00
2023-03-03T13:29:57.725Z,1.47
2023-03-03T13:32:33.173Z,1.50
2023-03-03T13:35:07.736Z,1.80
2023-03-03T13:37:40.992Z,1.80
2023-03-03T13:40:18.380Z,1.60
2023-03-03T13:42:51.601Z,1.60
2023-03-03T13:45:25.815Z,1.87
2023-03-03T13:48:02.411Z,1.50
2023-03-03T13:50:36.045Z,1.50
2023-03-03T13:53:21.137Z,1.50
2023-03-03T13:55:54.536Z,1.60
2023-03-03T13:58:34.449Z,2.00
2023-03-03T14:01:05.720Z,1.53
2023-03-03T14:04:02.379Z,1.70
2023-03-03T14:06:31.593Z,1.73
2023-03-03T14:09:16.228Z,1.70
2023-03-03T14:11:50.262Z,1.43
2023-03-03T14:14:34.501Z,1.43
2023-03-03T14:17:09.865Z,1.40
2023-03-03T14:19:44.988Z,1.33
2023-03-03T14:22:23.770Z,1.50
2023-03-03T14:25:03.141Z,1.43
2023-03-03T14:27:37.599Z,1.30
2023-03-03T14:30:37.622Z,1.33
2023-03-03T14:33:18.769Z,1.10
2023-03-03T14:35:52.920Z,1.10
2023-03-03T14:38:24.261Z,0.93
2023-03-03T14:41:13.880Z,0.90
2023-03-03T14:43:45.272Z,0.90
2023-03-03T14:46:35.276Z,0.60
2023-03-03T14:49:05.364Z,1.07
2023-03-03T14:51:41.718Z,0.70
2023-03-03T14:54:16.356Z,0.70
2023-03-03T14:57:02.013Z,0.90
2023-03-03T14:59:30.272Z,1.03
2023-03-03T15:02:10.099Z,0.97
2023-03-03T15:04:38.664Z,0.83
2023-03-03T15:07:25.100Z,0.70
2023-03-03T15:09:53.078Z,0.60
2023-03-03T15:12:24.681Z,1.03
2023-03-03T15:14:54.503Z,1.17
2023-03-03T15:17:31.031Z,0.80
2023-03-03T15:20:19.930Z,0.97
2023-03-03T15:22:53.353Z,0.90
2023-03-03T15:25:42.479Z,1.40
2023-03-03T15:28:38.977Z,1.23
2023-03-03T15:31:14.624Z,1.73
2023-03-03T15:33:51.970Z,0.80
2023-03-03T15:36:30.822Z,1.00
2023-03-03T15:39:06.722Z,0.77
2023-03-03T15:41:42.862Z,0.80
2023-03-03T15:44:20.093Z,1.00
2023-03-03T15:47:14.582Z,1.27
2023-03-03T15:50:21.776Z,0.70
2023-03-03T15:53:01.583Z,0.97
2023-03-03T15:55:39.218Z,0.93
2023-03-03T15:58:25.569Z,0.90
2023-03-03T16:01:03.985Z,0.80
2023-03-03T16:03:37.179Z,0.80
2023-03-03T16:06:10.004Z,1.10
2023-03-03T16:08:50.718Z,0.90
2023-03-03T16:11:24.594Z,1.00
2023-03-03T16:14:02.378Z,1.07
2023-03-03T16:16:40.929Z,1.10
2023-03-03T16:19:22.027Z,1.00
2023-03-03T16:22:08.877Z,1.10
2023-03-03T16:24:51.077Z,1.53
2023-03-03T16:27:25.388Z,1.00
2023-03-03T16:30:05.403Z,1.00
2023-03-03T16:32:41.178Z,0.90
2023-03-03T16:35:24.108Z,1.00
2023-03-03T16:37:59.728Z,1.57
2023-03-03T16:40:32.693Z,2.70
2023-03-03T16:43:11.591Z,1.20
2023-03-03T16:45:41.344Z,1.33
2023-03-03T16:48:25.145Z,1.30
2023-03-03T16:51:10.550Z,1.50
2023-03-03T16:53:55.111Z,1.33
2023-03-03T16:56:29.587Z,1.53
2023-03-03T16:59:17.713Z,1.63
2023-03-03T17:01:51.725Z,1.47
2023-03-03T17:04:35.844Z,1.40
2023-03-03T17:07:13.853Z,1.80
2023-03-03T17:09:56.394Z,1.30
2023-03-03T17:12:41.904Z,1.27
2023-03-03T17:15:23.389Z,1.47
2023-03-03T17:18:02.557Z,1.67
2023-03-03T17:20:40.493Z,1.80
2023-03-03T17:23:31.197Z,1.30
2023-03-03T17:26:13.590Z,1.57
2023-03-03T17:28:53.039Z,2.17
2023-03-03T17:31:30.812Z,2.40
2023-03-03T17:34:17.643Z,3.60
2023-03-03T17:36:55.906Z,3.83
2023-03-03T17:39:57.128Z,2.20
2023-03-03T17:42:36.432Z,2.00
2023-03-03T17:45:11.866Z,2.90
2023-03-03T17:47:48.485Z,3.50
2023-03-03T17:50:35.893Z,5.20
2023-03-03T17:53:27.655Z,3.83
2023-03-03T17:56:10.767Z,3.63
2023-03-03T17:59:07.197Z,3.20
2023-03-03T18:01:50.433Z,3.10
2023-03-03T18:04:29.636Z,2.50
2023-03-03T18:07:30.884Z,2.17
2023-03-03T18:10:25.888Z,2.40
2023-03-03T18:13:02.859Z,2.10
2023-03-03T18:15:51.856Z,2.07
2023-03-03T18:18:44.850Z,1.83
2023-03-03T18:21:16.936Z,2.03
2023-03-03T18:23:47.121Z,2.33
2023-03-03T18:26:37.621Z,2.20
2023-03-03T18:29:22.800Z,2.13
2023-03-03T18:32:03.692Z,2.33
2023-03-03T18:34:37.662Z,2.73
2023-03-03T18:37:10.486Z,3.10
2023-03-03T18:39:45.747Z,2.80
2023-03-03T18:42:38.145Z,3.87
2023-03-03T18:45:30.748Z,2.67
2023-03-03T18:48:05.884Z,2.80
2023-03-03T18:50:36.402Z,3.00
2023-03-03T18:53:27.760Z,4.17
2023-03-03T18:55:57.446Z,3.60
2023-03-03T18:58:40.771Z,3.10
2023-03-03T19:01:44.305Z,3.33
2023-03-03T19:04:23.503Z,3.40
2023-03-03T19:07:26.472Z,2.23
2023-03-03T19:10:01.782Z,3.43
2023-03-03T19:12:51.955Z,3.60
2023-03-03T19:15:51.290Z,2.97
2023-03-03T19:18:22.723Z,2.40
2023-03-03T19:20:56.224Z,3.83
2023-03-03T19:23:34.931Z,2.53
2023-03-03T19:26:32.449Z,3.17
2023-03-03T19:29:08.895Z,2.57
2023-03-03T19:31:44.669Z,2.30
2023-03-03T19:34:22.075Z,2.80
2023-03-03T19:37:03.078Z,3.17
2023-03-03T19:39:46.497Z,3.00
2023-03-03T19:42:24.906Z,2.87
2023-03-03T19:45:08.781Z,2.47
2023-03-03T19:47:41.005Z,2.80
2023-03-03T19:50:23.206Z,3.00
2023-03-03T19:53:01.390Z,3.30
2023-03-03T19:55:44.325Z,2.97
2023-03-03T19:58:23.722Z,2.80
2023-03-03T20:01:02.063Z,3.07
2023-03-03T20:03:59.987Z,2.70
2023-03-03T20:06:42.490Z,3.03
2023-03-03T20:09:21.641Z,2.50
2023-03-03T20:12:01.650Z,3.20
2023-03-03T20:14:54.949Z,2.90
2023-03-03T20:17:40.689Z,2.87
2023-03-03T20:20:26.524Z,3.70
2023-03-03T20:23:05.405Z,3.20
2023-03-03T20:25:38.971Z,3.50
2023-03-03T20:28:36.596Z,2.77
2023-03-03T20:31:10.619Z,3.17
2023-03-03T20:33:48.949Z,3.03
2023-03-03T20:36:27.610Z,2.90
2023-03-03T20:39:05.553Z,2.80
2023-03-03T20:41:49.365Z,3.43
2023-03-03T20:44:30.658Z,2.87
2023-03-03T20:47:05.512Z,3.20
2023-03-03T20:49:54.352Z,3.17
2023-03-03T20:52:30.965Z,2.57
2023-03-03T20:55:10.865Z,3.50
2023-03-03T20:57:47.839Z,3.43
2023-03-03T21:00:21.915Z,3.77
2023-03-03T21:03:00.222Z,2.63
2023-03-03T21:05:29.343Z,3.03
2023-03-03T21:08:01.245Z,2.83
2023-03-03T21:10:33.772Z,3.80
2023-03-03T21:13:26.923Z,2.90
2023-03-03T21:16:05.462Z,2.87
2023-03-03T21:18:33.461Z,4.23
2023-03-03T21:21:09.216Z,3.73
2023-03-03T21:23:37.313Z,3.13
2023-03-03T21:26:05.349Z,3.07
2023-03-03T21:28:35.298Z,3.23
2023-03-03T21:31:07.898Z,2.50
2023-03-03T21:33:47.695Z,4.27
2023-03-03T21:36:16.924Z,3.00
2023-03-03T21:38:46.466Z,3.53
2023-03-03T21:41:16.232Z,3.67
2023-03-03T21:43:45.656Z,3.53
2023-03-03T21:46:18.956Z,4.17
2023-03-03T21:48:47.038Z,3.37
2023-03-03T21:51:15.145Z,3.50
2023-03-03T21:53:44.182Z,2.73
2023-03-03T21:56:13.851Z,2.93
2023-03-03T21:58:42.475Z,3.10
2023-03-03T22:01:10.897Z,3.00
2023-03-03T22:03:40.565Z,4.03
2023-03-03T22:06:08.573Z,3.40
2023-03-03T22:08:36.373Z,3.03
2023-03-03T22:11:05.500Z,2.93
2023-03-03T22:13:33.390Z,3.47
2023-03-03T22:16:01.430Z,2.90
2023-03-03T22:18:29.505Z,2.70
2023-03-03T22:20:58.824Z,3.30
2023-03-03T22:23:26.768Z,2.40
2023-03-03T22:25:54.612Z,3.97
2023-03-03T22:28:22.475Z,3.63
2023-03-03T22:30:50.525Z,3.20
2023-03-03T22:33:18.904Z,3.27
2023-03-03T22:35:46.901Z,3.30
2023-03-03T22:38:16.548Z,3.50
2023-03-03T22:40:45.101Z,2.57
2023-03-03T22:43:14.471Z,3.57
2023-03-03T22:45:42.499Z,2.37
2023-03-03T22:48:10.352Z,3.10
2023-03-03T22:50:39.486Z,3.10
2023-03-03T22:53:07.400Z,2.93
2023-03-03T22:55:37.297Z,2.20
2023-03-03T22:58:07.486Z,2.93
2023-03-03T23:00:38.312Z,3.00
2023-03-03T23:03:06.295Z,2.63
2023-03-03T23:05:35.694Z,2.87
2023-03-03T23:08:04.058Z,3.13
2023-03-03T23:10:32.158Z,2.73
2023-03-03T23:13:01.569Z,2.83
2023-03-03T23:15:29.566Z,2.80
2023-03-03T23:17:57.478Z,2.53
2023-03-03T23:20:27.510Z,2.60
2023-03-03T23:22:55.780Z,2.63
2023-03-03T23:25:24.004Z,3.10
2023-03-03T23:27:52.447Z,2.20
2023-03-03T23:30:23.204Z,2.87
2023-03-03T23:32:51.480Z,2.17
2023-03-03T23:35:20.127Z,2.37
2023-03-03T23:37:48.410Z,2.30
2023-03-03T23:40:17.554Z,2.10
2023-03-03T23:42:45.980Z,2.93
2023-03-03T23:45:14.311Z,2.20
2023-03-03T23:47:43.667Z,2.57
2023-03-03T23:50:13.194Z,2.67
2023-03-03T23:52:41.318Z,2.43
2023-03-03T23:55:10.121Z,2.20
2023-03-03T23:57:38.045Z,2.07
